Airfield :







YOU CAN JOIN US ON...

 
LOGIN :

Register | Disclaimer

   EN    FR    IT 

 









Legend :    VFR   Marginal VFR   IFR   Intensive IFR   Very Intensive IFR
Visi :
Ceiling :
>= 8 km
>= 3000ft
5 to 8 km
1000 to 3000 ft
1500m to 5 km
500 to 1000 ft
800 to 1500m
200 to 500 ft
< 800m
< 200 ft
Symbols :   Thunderstorms  Fog  Heavy snow  Heavy precipitations  Wind > 20 kt







- Airport Elevation : 1166 ft


KMPV - Edward F Knapp State

CURRENT METAR :
  • 221951Z AUTO 19007KT 10SM CLR 26/17 A3002 RMK AO2 SLP164 T02610167

EXPIRED METARs :
  • 221851Z AUTO 20010KT 10SM CLR 26/16 A3004 RMK AO2 SLP170 T02610161
  • 221751Z AUTO 22008G15KT 10SM CLR 27/16 A3006 RMK AO2 SLP177 T02670161 10267 20106 58023

TAF KMPV
Valid from the 22 at 18:00 until the 23 at 18:00 UTC


221729Z 2218/2318 20008KT P6SM SCT200
FM230800 21007KT P6SM SCT025
FM231400 22008G17KT P6SM SCT080
FM231600 23010G19KT P6SM VCSH BKN060
No reported NOTAMs for that airfield.



MET'MAP, your aeronautical weather chart ! - Copyright ORBIFLY December 2007 - Disclaimer

ORBIFLY MET'MAP TEAM :

Programming & Development : Alexandra Zaïnal
Concept & Development : Baudouin d'Aumeries
Co-Development & Prog : Marc-Olivier Méhu
Technical & hardware support : Manuel Goepfert

Contact : metmap@orbifly.com




SOURCES & CREDITS :

   NOAA